Time;durP1;ratioP1;P1;durP2;ratioP2;P2;SDS_P1;SDS_P2;PMS_P1;PMS_P2;Temp;Humidity;BMP_temperature;BMP_pressure;BME280_temperature;BME280_humidity;BME280_pressure;Samples;Min_cycle;Max_cycle;Signal;HPM_P1;HPM_P2
2021/06/20 00:00:43;;;;;;;;;;;;;;;29.66;43.33;100729.13;4938563;28;97997;-82
2021/06/20 00:03:10;;;;;;;;;;;;;;;29.84;43.46;100726.97;4937327;28;98804;-83
2021/06/20 00:05:37;;;;;;;;;;;;;;;29.78;43.38;100721.38;4936375;28;99176;-85
2021/06/20 00:08:05;;;;;;;;;;;;;;;29.62;43.77;100711.44;4935674;28;97054;-85
2021/06/20 00:10:32;;;;;;;;;;;;;;;29.56;44.04;100710.28;4937085;28;96994;-82
2021/06/20 00:12:59;;;;;;;;;;;;;;;29.33;44.28;100712.06;4930010;28;97620;-83
2021/06/20 00:15:26;;;;;;;;;;;;;;;29.30;44.44;100709.69;4935561;28;97814;-83
2021/06/20 00:17:53;;;;;;;;;;;;;;;29.57;43.74;100709.25;4935992;28;97071;-83
2021/06/20 00:20:21;;;;;;;;;;;;;;;29.76;43.29;100697.06;4935717;28;98237;-83
2021/06/20 00:22:48;;;;;;;;;;;;;;;29.54;43.75;100704.16;4936192;28;101489;-82
2021/06/20 00:25:15;;;;;;;;;;;;;;;29.95;42.78;100702.06;4936687;28;99142;-82
2021/06/20 00:27:41;;;;;;;;;;;;;;;29.59;43.82;100707.19;4937746;28;96842;-83
2021/06/20 00:30:09;;;;;;;;;;;;;;;29.31;44.28;100712.22;4935852;28;97644;-82
2021/06/20 00:32:36;;;;;;;;;;;;;;;29.75;43.45;100706.25;4932850;28;99931;-84
2021/06/20 00:35:02;;;;;;;;;;;;;;;29.59;43.57;100703.63;4935812;28;98858;-84
2021/06/20 00:37:30;;;;;;;;;;;;;;;29.17;44.88;100703.94;4936678;28;97136;-84
2021/06/20 00:39:58;;;;;;;;;;;;;;;29.54;44.08;100695.13;4937651;28;97024;-83
2021/06/20 00:42:24;;;;;;;;;;;;;;;29.70;43.82;100687.72;4943796;28;99057;-83
2021/06/20 00:44:51;;;;;;;;;;;;;;;29.64;43.73;100693.03;4947177;28;97814;-84
2021/06/20 00:50:08;;;;;;;;;;;;;;;29.99;42.94;100683.50;4937635;28;96856;-83
2021/06/20 00:52:36;;;;;;;;;;;;;;;29.50;44.43;100680.19;4944286;28;98518;-83
2021/06/20 00:55:02;;;;;;;;;;;;;;;29.65;44.08;100679.25;4942459;28;99136;-83
2021/06/20 00:57:29;;;;;;;;;;;;;;;29.57;44.34;100683.91;4925571;28;97574;-83
2021/06/20 00:59:56;;;;;;;;;;;;;;;29.28;45.08;100681.78;4937718;28;96957;-84
2021/06/20 01:02:22;;;;;;;;;;;;;;;29.02;45.74;100692.94;4935687;28;97923;-84
2021/06/20 01:04:49;;;;;;;;;;;;;;;29.15;45.08;100682.34;4936332;28;99046;-83
2021/06/20 01:07:16;;;;;;;;;;;;;;;29.05;45.44;100687.16;4934918;28;98335;-82
2021/06/20 01:09:44;;;;;;;;;;;;;;;29.07;45.54;100676.09;4926622;28;97026;-83
2021/06/20 01:12:10;;;;;;;;;;;;;;;29.12;45.39;100670.97;4944067;28;98480;-82
2021/06/20 01:14:37;;;;;;;;;;;;;;;29.42;44.77;100662.03;4936089;28;99281;-83
2021/06/20 01:17:04;;;;;;;;;;;;;;;29.43;44.98;100655.56;4931664;28;96936;-83
2021/06/20 01:19:31;;;;;;;;;;;;;;;29.43;44.75;100652.84;4931577;28;96856;-83
2021/06/20 01:21:58;;;;;;;;;;;;;;;29.50;44.78;100642.94;4935217;28;98985;-83
2021/06/20 01:24:26;;;;;;;;;;;;;;;29.59;44.49;100641.88;4937317;28;98964;-84
2021/06/20 01:26:53;;;;;;;;;;;;;;;29.55;44.42;100628.75;4931273;28;97015;-84
2021/06/20 01:29:19;;;;;;;;;;;;;;;29.44;44.99;100626.47;4932969;28;97414;-82
2021/06/20 01:31:51;;;;;;;;;;;;;;;29.30;45.32;100619.88;4931639;28;98944;-82
2021/06/20 01:34:17;;;;;;;;;;;;;;;29.22;45.22;100628.06;4934111;28;100379;-83
2021/06/20 01:36:44;;;;;;;;;;;;;;;28.94;46.07;100622.28;4936682;28;97954;-83
2021/06/20 01:39:11;;;;;;;;;;;;;;;28.91;46.23;100607.13;4934091;28;97139;-83
2021/06/20 01:41:39;;;;;;;;;;;;;;;28.66;46.94;100601.94;4936845;28;99468;-83
2021/06/20 01:44:06;;;;;;;;;;;;;;;28.61;47.41;100591.59;4933843;28;99987;-82
2021/06/20 01:46:32;;;;;;;;;;;;;;;28.78;46.85;100579.66;4933712;28;96817;-81
2021/06/20 01:48:58;;;;;;;;;;;;;;;28.86;46.44;100563.31;4934768;28;98268;-85
2021/06/20 01:51:24;;;;;;;;;;;;;;;28.70;47.05;100567.91;4932858;28;98912;-84
2021/06/20 01:53:51;;;;;;;;;;;;;;;28.88;46.46;100569.41;4923320;28;98796;-83
2021/06/20 01:56:17;;;;;;;;;;;;;;;28.63;47.12;100556.06;4932300;28;96809;-84
2021/06/20 01:58:45;;;;;;;;;;;;;;;28.34;47.81;100568.38;4936357;28;97806;-84
2021/06/20 02:01:11;;;;;;;;;;;;;;;28.26;47.96;100553.97;4932733;28;98988;-84
2021/06/20 02:03:37;;;;;;;;;;;;;;;28.20;48.30;100558.22;4936604;28;101229;-83
2021/06/20 02:06:04;;;;;;;;;;;;;;;28.73;46.86;100559.44;4935912;28;97973;-84
2021/06/20 02:08:33;;;;;;;;;;;;;;;28.73;47.04;100570.31;4930248;28;97029;-82
2021/06/20 02:10:59;;;;;;;;;;;;;;;28.64;46.80;100580.34;4933538;28;97846;-84
2021/06/20 02:13:27;;;;;;;;;;;;;;;29.19;45.67;100587.63;4934152;28;96890;-84
2021/06/20 02:15:55;;;;;;;;;;;;;;;28.89;46.46;100594.72;4937625;28;96972;-84
2021/06/20 02:18:21;;;;;;;;;;;;;;;28.90;46.13;100597.28;4935840;28;96818;-84
2021/06/20 02:20:48;;;;;;;;;;;;;;;29.07;45.74;100602.66;4942581;28;97835;-84
2021/06/20 02:23:14;;;;;;;;;;;;;;;29.07;45.81;100608.94;4940628;28;97813;-82
2021/06/20 02:25:41;;;;;;;;;;;;;;;28.89;46.45;100611.91;4939088;28;96850;-82
2021/06/20 02:28:08;;;;;;;;;;;;;;;28.72;46.60;100610.22;4947029;28;97719;-82
2021/06/20 02:30:35;;;;;;;;;;;;;;;28.77;46.61;100616.03;4936702;28;98306;-82
2021/06/20 02:33:02;;;;;;;;;;;;;;;29.06;45.89;100618.13;4939210;28;99177;-83
2021/06/20 02:35:29;;;;;;;;;;;;;;;29.28;45.66;100639.09;4939338;28;97011;-83
2021/06/20 02:37:55;;;;;;;;;;;;;;;29.20;45.33;100638.31;4930954;28;97167;-84
2021/06/20 02:40:22;;;;;;;;;;;;;;;29.31;45.15;100644.19;4937480;28;99547;-83
2021/06/20 02:42:48;;;;;;;;;;;;;;;29.35;45.15;100649.28;4936108;28;98863;-84
2021/06/20 02:45:15;;;;;;;;;;;;;;;29.15;45.82;100655.13;4932295;28;98667;-83
2021/06/20 02:47:42;;;;;;;;;;;;;;;29.04;46.29;100657.41;4939191;28;98236;-83
2021/06/20 02:50:11;;;;;;;;;;;;;;;28.68;47.72;100665.16;4942224;28;99119;-84
2021/06/20 02:52:37;;;;;;;;;;;;;;;28.67;47.70;100661.56;4938087;28;99301;-84
2021/06/20 02:55:04;;;;;;;;;;;;;;;29.01;46.83;100649.63;4939182;28;97551;-83
2021/06/20 02:57:31;;;;;;;;;;;;;;;29.32;46.23;100650.50;4938293;28;98408;-83
2021/06/20 03:00:01;;;;;;;;;;;;;;;29.25;45.80;100638.63;4939999;28;97883;-83
2021/06/20 03:02:27;;;;;;;;;;;;;;;29.31;45.40;100621.56;4941053;28;97792;-84
2021/06/20 03:04:54;;;;;;;;;;;;;;;29.14;45.69;100625.41;4943076;28;96788;-84
2021/06/20 03:07:22;;;;;;;;;;;;;;;29.17;46.13;100630.47;4941471;28;96888;-83
2021/06/20 03:09:48;;;;;;;;;;;;;;;28.61;47.47;100632.38;4934385;28;100949;-84
2021/06/20 03:12:15;;;;;;;;;;;;;;;28.95;46.67;100612.25;4945756;28;98089;-83
2021/06/20 03:14:42;;;;;;;;;;;;;;;28.97;46.66;100619.19;4937451;28;96944;-83
2021/06/20 03:17:08;;;;;;;;;;;;;;;29.03;47.11;100612.19;4944090;28;98048;-82
2021/06/20 03:19:35;;;;;;;;;;;;;;;29.23;46.24;100608.00;4933695;28;101357;-83
2021/06/20 03:22:02;;;;;;;;;;;;;;;28.78;47.26;100615.00;4935964;28;99189;-83
2021/06/20 03:24:30;;;;;;;;;;;;;;;28.90;47.54;100607.31;4941228;28;96831;-83
2021/06/20 03:26:57;;;;;;;;;;;;;;;28.66;48.17;100608.22;4938355;28;96888;-83
2021/06/20 03:29:23;;;;;;;;;;;;;;;28.82;47.95;100610.03;4929126;28;99426;-84
2021/06/20 03:31:49;;;;;;;;;;;;;;;28.61;48.94;100607.06;4937140;28;97776;-82
2021/06/20 03:34:15;;;;;;;;;;;;;;;28.53;49.37;100608.75;4945669;28;96980;-83
2021/06/20 03:36:42;;;;;;;;;;;;;;;28.61;49.30;100607.91;4943013;28;97583;-83
2021/06/20 03:39:08;;;;;;;;;;;;;;;28.54;49.43;100606.91;4945199;28;99422;-83
2021/06/20 03:41:37;;;;;;;;;;;;;;;28.73;48.88;100609.22;4942298;28;97707;-84
2021/06/20 03:44:04;;;;;;;;;;;;;;;28.63;48.85;100603.13;4941304;28;96771;-83
2021/06/20 03:46:31;;;;;;;;;;;;;;;28.63;48.58;100592.25;4936048;28;96864;-83
2021/06/20 03:48:57;;;;;;;;;;;;;;;29.41;46.38;100583.25;4945336;28;99007;-82
2021/06/20 03:51:23;;;;;;;;;;;;;;;29.47;46.10;100577.94;4947166;28;97717;-82
2021/06/20 03:53:49;;;;;;;;;;;;;;;29.48;45.15;100573.34;4944983;28;96883;-83
2021/06/20 03:56:16;;;;;;;;;;;;;;;29.53;45.00;100566.34;4936076;28;97011;-83
2021/06/20 03:58:43;;;;;;;;;;;;;;;29.88;43.37;100558.56;4944159;28;99262;-84
2021/06/20 04:01:10;;;;;;;;;;;;;;;29.80;43.25;100564.13;4937638;28;99149;-84
2021/06/20 04:03:36;;;;;;;;;;;;;;;29.87;43.43;100565.03;4940109;28;96788;-83
2021/06/20 04:06:02;;;;;;;;;;;;;;;29.78;42.94;100563.44;4935382;28;98253;-84
2021/06/20 04:08:29;;;;;;;;;;;;;;;29.86;42.98;100550.59;4931379;28;96996;-83
2021/06/20 04:10:55;;;;;;;;;;;;;;;30.28;42.04;100554.63;4935349;28;99258;-82
2021/06/20 04:13:22;;;;;;;;;;;;;;;30.47;41.63;100549.47;4935342;28;97478;-84
2021/06/20 04:15:49;;;;;;;;;;;;;;;30.40;41.77;100548.53;4936546;28;97237;-83
2021/06/20 04:18:16;;;;;;;;;;;;;;;30.37;41.49;100542.63;4926413;28;99096;-83
2021/06/20 04:20:42;;;;;;;;;;;;;;;30.45;41.56;100537.94;4936228;28;99808;-82
2021/06/20 04:23:09;;;;;;;;;;;;;;;30.44;40.89;100538.13;4936994;28;97013;-82
2021/06/20 04:25:35;;;;;;;;;;;;;;;30.83;40.17;100543.28;4933354;28;97273;-83
2021/06/20 04:28:02;;;;;;;;;;;;;;;30.64;40.63;100542.00;4937002;28;98851;-83
2021/06/20 04:30:28;;;;;;;;;;;;;;;30.70;40.54;100540.41;4930698;28;98514;-83
2021/06/20 04:32:56;;;;;;;;;;;;;;;30.60;40.46;100531.66;4935517;28;97684;-83
2021/06/20 04:35:22;;;;;;;;;;;;;;;30.79;40.37;100526.44;4939178;28;98047;-81
2021/06/20 04:37:49;;;;;;;;;;;;;;;30.96;40.24;100524.38;4936439;28;97633;-82
2021/06/20 04:40:18;;;;;;;;;;;;;;;31.04;40.07;100520.69;4939384;28;98859;-83
2021/06/20 04:42:46;;;;;;;;;;;;;;;31.09;39.67;100516.38;4940363;28;96716;-84
2021/06/20 04:45:13;;;;;;;;;;;;;;;31.30;39.16;100517.44;4938803;28;96851;-83
2021/06/20 04:47:40;;;;;;;;;;;;;;;31.20;39.27;100515.84;4940230;28;99583;-83
2021/06/20 04:50:09;;;;;;;;;;;;;;;31.21;39.37;100514.81;4939188;28;99291;-84
2021/06/20 04:52:35;;;;;;;;;;;;;;;31.31;39.31;100528.13;4937438;28;96835;-83
2021/06/20 04:55:21;;;;;;;;;;;;;;;31.22;39.18;100524.69;4943029;28;96845;-84
2021/06/20 04:57:47;;;;;;;;;;;;;;;31.39;39.02;100528.00;4931549;28;99389;-82
2021/06/20 05:00:14;;;;;;;;;;;;;;;31.21;39.64;100525.72;4937325;28;98101;-83
2021/06/20 05:02:40;;;;;;;;;;;;;;;31.21;39.45;100527.63;4938113;28;97125;-84
2021/06/20 05:05:09;;;;;;;;;;;;;;;31.54;39.05;100533.41;4938073;28;96976;-82
2021/06/20 05:07:35;;;;;;;;;;;;;;;31.77;38.39;100536.81;4936011;28;101318;-82
2021/06/20 05:10:05;;;;;;;;;;;;;;;32.05;38.10;100532.19;4939853;28;99167;-82
2021/06/20 05:12:31;;;;;;;;;;;;;;;32.00;38.42;100534.69;4934137;28;96839;-83
2021/06/20 05:14:58;;;;;;;;;;;;;;;31.95;38.24;100530.88;4939287;28;96914;-83
2021/06/20 05:17:24;;;;;;;;;;;;;;;31.38;39.43;100545.41;4936553;28;98691;-83
2021/06/20 05:19:50;;;;;;;;;;;;;;;31.45;39.49;100549.06;4937457;28;98920;-81
2021/06/20 05:22:19;;;;;;;;;;;;;;;31.70;38.85;100552.31;4938417;28;97123;-82
2021/06/20 05:24:45;;;;;;;;;;;;;;;31.66;39.22;100549.13;4940168;28;97180;-82
2021/06/20 05:27:12;;;;;;;;;;;;;;;31.77;39.14;100542.25;4934547;28;99151;-82
2021/06/20 05:29:38;;;;;;;;;;;;;;;32.22;37.95;100540.16;4929363;28;98944;-83
2021/06/20 05:32:05;;;;;;;;;;;;;;;32.14;38.49;100545.75;4937246;28;97802;-83
2021/06/20 05:34:31;;;;;;;;;;;;;;;32.08;38.34;100543.78;4936209;28;97174;-83
2021/06/20 05:36:58;;;;;;;;;;;;;;;32.05;38.51;100545.03;4938538;28;98895;-82
2021/06/20 05:39:26;;;;;;;;;;;;;;;32.36;37.93;100541.94;4940073;28;97948;-83
2021/06/20 05:41:52;;;;;;;;;;;;;;;31.84;39.01;100539.59;4937133;28;97481;-82
2021/06/20 05:44:18;;;;;;;;;;;;;;;32.18;38.58;100528.75;4933151;28;96599;-83
2021/06/20 05:46:45;;;;;;;;;;;;;;;32.42;37.91;100533.78;4945286;28;97524;-83
2021/06/20 05:49:11;;;;;;;;;;;;;;;32.45;37.69;100543.44;4947185;28;98207;-83
2021/06/20 05:51:38;;;;;;;;;;;;;;;32.65;37.63;100536.19;4952005;28;97201;-83
2021/06/20 05:54:04;;;;;;;;;;;;;;;32.41;38.08;100533.97;4954709;28;96489;-83
2021/06/20 05:56:32;;;;;;;;;;;;;;;32.19;38.52;100524.97;4942309;28;97022;-83
2021/06/20 05:58:58;;;;;;;;;;;;;;;32.33;38.37;100531.38;4940830;28;98835;-83
2021/06/20 06:01:24;;;;;;;;;;;;;;;32.79;37.65;100521.56;4940529;28;97040;-83
2021/06/20 06:03:51;;;;;;;;;;;;;;;32.67;37.81;100528.66;4940135;28;96906;-84
2021/06/20 06:06:17;;;;;;;;;;;;;;;32.66;38.05;100537.03;4939111;28;98263;-83
2021/06/20 06:08:43;;;;;;;;;;;;;;;32.67;37.89;100534.13;4938677;28;99312;-84
2021/06/20 06:11:10;;;;;;;;;;;;;;;32.79;37.95;100529.78;4936705;28;98426;-83
2021/06/20 06:13:38;;;;;;;;;;;;;;;33.04;37.92;100542.91;4942015;28;97148;-84
2021/06/20 06:16:04;;;;;;;;;;;;;;;32.98;37.90;100535.53;4938344;28;97888;-83
2021/06/20 06:18:31;;;;;;;;;;;;;;;32.80;37.92;100542.41;4937443;28;99255;-84
2021/06/20 06:20:57;;;;;;;;;;;;;;;32.81;37.55;100546.84;4934094;28;97958;-83
2021/06/20 06:23:23;;;;;;;;;;;;;;;32.85;37.53;100547.25;4936961;28;98042;-84
2021/06/20 06:25:50;;;;;;;;;;;;;;;33.29;36.75;100548.69;4940838;28;99513;-83
2021/06/20 06:28:16;;;;;;;;;;;;;;;33.04;36.96;100546.50;4933696;28;98830;-83
2021/06/20 06:30:44;;;;;;;;;;;;;;;33.44;36.49;100552.13;4941953;28;96730;-85
2021/06/20 06:33:10;;;;;;;;;;;;;;;33.84;35.77;100542.91;4942445;28;96850;-84
2021/06/20 06:35:37;;;;;;;;;;;;;;;33.49;36.64;100553.16;4935815;28;99353;-84
2021/06/20 06:38:03;;;;;;;;;;;;;;;32.96;37.39;100552.13;4942963;28;97937;-87
2021/06/20 06:40:30;;;;;;;;;;;;;;;33.52;36.91;100543.72;4932558;28;96822;-84
2021/06/20 06:42:56;;;;;;;;;;;;;;;33.42;36.56;100541.34;4939526;28;98325;-83
2021/06/20 06:45:23;;;;;;;;;;;;;;;33.74;36.14;100537.00;4941390;28;98511;-85
2021/06/20 06:47:50;;;;;;;;;;;;;;;33.52;36.60;100532.75;4937472;28;98730;-84
2021/06/20 06:50:17;;;;;;;;;;;;;;;33.65;36.34;100534.66;4935014;28;96719;-82
2021/06/20 06:52:44;;;;;;;;;;;;;;;33.61;36.54;100535.06;4938861;28;96905;-81
2021/06/20 06:55:11;;;;;;;;;;;;;;;33.33;36.86;100528.94;4932204;28;97678;-84
2021/06/20 06:57:38;;;;;;;;;;;;;;;33.59;36.52;100528.97;4933583;28;97946;-84
2021/06/20 07:00:05;;;;;;;;;;;;;;;33.61;36.66;100526.84;4939342;28;97067;-83
2021/06/20 07:02:32;;;;;;;;;;;;;;;33.85;36.32;100517.22;4939208;28;96891;-83
2021/06/20 07:05:00;;;;;;;;;;;;;;;33.95;36.30;100516.75;4935174;28;97875;-83
2021/06/20 07:07:26;;;;;;;;;;;;;;;34.21;35.75;100526.84;4935635;28;100060;-83
2021/06/20 07:09:52;;;;;;;;;;;;;;;34.20;35.69;100520.53;4937967;28;96940;-83
2021/06/20 07:12:19;;;;;;;;;;;;;;;34.39;35.19;100511.47;4934473;28;98771;-83
2021/06/20 07:14:46;;;;;;;;;;;;;;;34.05;35.54;100514.44;4936501;28;98097;-83
2021/06/20 07:17:13;;;;;;;;;;;;;;;34.40;35.58;100507.66;4932740;28;98779;-83
2021/06/20 07:19:39;;;;;;;;;;;;;;;34.31;35.07;100517.19;4938850;28;96893;-83
2021/06/20 07:22:07;;;;;;;;;;;;;;;34.35;35.21;100504.72;4937192;28;97365;-83
2021/06/20 07:24:33;;;;;;;;;;;;;;;34.61;35.00;100498.28;4937944;28;99248;-83
2021/06/20 07:27:00;;;;;;;;;;;;;;;34.95;34.58;100508.09;4939128;28;97717;-83
2021/06/20 07:29:26;;;;;;;;;;;;;;;34.93;33.74;100503.88;4937906;28;97049;-83
2021/06/20 07:31:52;;;;;;;;;;;;;;;35.19;33.53;100509.22;4941341;28;97012;-83
2021/06/20 07:34:19;;;;;;;;;;;;;;;34.94;33.77;100511.06;4937328;28;101093;-83
2021/06/20 07:36:45;;;;;;;;;;;;;;;34.70;33.60;100505.25;4942576;28;97986;-84
2021/06/20 07:39:14;;;;;;;;;;;;;;;34.65;33.78;100501.47;4940322;28;96830;-84
2021/06/20 07:41:41;;;;;;;;;;;;;;;34.86;33.60;100492.94;4940323;28;96894;-83
2021/06/20 07:44:07;;;;;;;;;;;;;;;34.96;33.43;100498.81;4940279;28;99147;-84
2021/06/20 07:46:34;;;;;;;;;;;;;;;34.87;33.96;100491.03;4931373;28;99823;-84
2021/06/20 07:49:01;;;;;;;;;;;;;;;34.78;34.07;100482.22;4941717;28;97167;-84
2021/06/20 07:51:27;;;;;;;;;;;;;;;34.49;34.45;100479.97;4940527;28;96925;-83
2021/06/20 07:53:53;;;;;;;;;;;;;;;34.56;34.37;100491.78;4939842;28;96915;-84
2021/06/20 07:56:21;;;;;;;;;;;;;;;34.30;34.26;100477.09;4939078;28;97746;-83
2021/06/20 07:58:47;;;;;;;;;;;;;;;34.36;34.48;100480.88;4946382;28;96667;-82
2021/06/20 08:01:14;;;;;;;;;;;;;;;34.91;33.62;100476.69;4946921;28;96901;-83
2021/06/20 08:03:40;;;;;;;;;;;;;;;34.91;34.19;100473.94;4947188;28;98910;-82
2021/06/20 08:06:07;;;;;;;;;;;;;;;34.67;34.50;100467.25;4944567;28;99499;-84
2021/06/20 08:08:33;;;;;;;;;;;;;;;34.97;34.30;100464.81;4936668;28;97132;-83
2021/06/20 08:11:02;;;;;;;;;;;;;;;34.77;34.47;100455.84;4943075;28;97728;-84
2021/06/20 08:13:30;;;;;;;;;;;;;;;34.98;34.11;100461.00;4945270;28;99219;-86
2021/06/20 08:15:57;;;;;;;;;;;;;;;34.92;33.47;100461.88;4940836;28;97713;-85
2021/06/20 08:18:24;;;;;;;;;;;;;;;34.71;34.10;100463.06;4949429;28;96697;-85
2021/06/20 08:20:51;;;;;;;;;;;;;;;35.04;33.35;100465.63;4951963;28;96922;-86
2021/06/20 08:23:24;;;;;;;;;;;;;;;35.02;33.26;100467.72;4949294;28;99447;-85
2021/06/20 08:25:50;;;;;;;;;;;;;;;34.55;33.59;100465.41;4935300;28;100570;-86
2021/06/20 08:28:32;;;;;;;;;;;;;;;34.86;33.33;100454.50;4940424;28;97195;-87
2021/06/20 08:31:05;;;;;;;;;;;;;;;35.05;33.40;100452.72;4945755;28;97040;-86
2021/06/20 08:33:31;;;;;;;;;;;;;;;35.35;32.87;100456.56;4944691;28;97760;-86
2021/06/20 08:36:02;;;;;;;;;;;;;;;35.31;32.88;100455.34;4953973;28;96832;-88
2021/06/20 08:38:32;;;;;;;;;;;;;;;35.38;32.35;100458.03;4945316;28;96710;-88
2021/06/20 08:40:58;;;;;;;;;;;;;;;35.04;32.57;100459.28;4950701;28;96453;-88
2021/06/20 08:46:08;;;;;;;;;;;;;;;35.04;32.71;100462.88;4949087;28;99078;-90
2021/06/20 08:48:35;;;;;;;;;;;;;;;34.81;32.60;100457.06;4942931;28;96835;-88
2021/06/20 08:51:05;;;;;;;;;;;;;;;35.35;31.86;100466.69;4954232;28;96829;-90
2021/06/20 08:53:31;;;;;;;;;;;;;;;35.75;31.54;100468.09;4957936;28;96831;-90
2021/06/20 08:56:03;;;;;;;;;;;;;;;36.15;31.19;100462.19;4952383;28;98807;-87
2021/06/20 08:58:34;;;;;;;;;;;;;;;36.30;31.23;100457.22;4930710;28;96740;-87
2021/06/20 09:01:08;;;;;;;;;;;;;;;36.23;31.06;100461.94;4939240;28;96747;-88
2021/06/20 09:03:39;;;;;;;;;;;;;;;35.85;31.31;100464.81;4933990;28;98213;-86
2021/06/20 09:06:14;;;;;;;;;;;;;;;36.03;30.67;100455.78;4951017;28;98894;-84
2021/06/20 09:11:32;;;;;;;;;;;;;;;35.75;30.83;100457.09;4937408;28;96610;-86
2021/06/20 09:14:04;;;;;;;;;;;;;;;35.61;30.83;100452.75;4906625;28;117959;-86
2021/06/20 09:16:33;;;;;;;;;;;;;;;35.48;30.70;100447.38;4943287;28;101747;-86
2021/06/20 09:19:23;;;;;;;;;;;;;;;36.36;29.68;100430.69;4940809;28;96770;-86
2021/06/20 09:22:09;;;;;;;;;;;;;;;36.28;28.85;100437.34;4935222;28;97964;-86
2021/06/20 09:24:36;;;;;;;;;;;;;;;36.58;28.57;100437.38;4942957;28;98676;-86
2021/06/20 09:32:47;;;;;;;;;;;;;;;36.55;28.26;100437.84;4955938;28;96104;-87
2021/06/20 09:35:15;;;;;;;;;;;;;;;36.56;28.03;100440.34;4982367;23;97613;-88
2021/06/20 09:37:49;;;;;;;;;;;;;;;36.30;28.23;100437.94;4968122;28;100065;-84
2021/06/20 09:40:28;;;;;;;;;;;;;;;36.25;28.74;100448.78;4970280;28;96863;-84
2021/06/20 09:42:55;;;;;;;;;;;;;;;36.00;28.69;100442.47;4977483;28;96930;-82
2021/06/20 09:45:32;;;;;;;;;;;;;;;36.11;28.76;100452.72;4974342;28;99030;-83
2021/06/20 09:48:00;;;;;;;;;;;;;;;36.09;28.77;100460.38;4988923;28;98417;-83
2021/06/20 09:50:33;;;;;;;;;;;;;;;36.45;28.12;100460.41;4973410;28;96582;-84
2021/06/20 09:55:41;;;;;;;;;;;;;;;35.85;29.06;100454.66;4978278;28;98949;-82
2021/06/20 09:58:09;;;;;;;;;;;;;;;36.30;28.56;100454.47;4992781;28;101152;-85
2021/06/20 10:00:41;;;;;;;;;;;;;;;35.55;29.36;100453.66;4976851;28;96967;-86
2021/06/20 10:03:24;;;;;;;;;;;;;;;35.88;29.18;100445.97;4978609;28;96861;-85
2021/06/20 10:05:58;;;;;;;;;;;;;;;35.84;29.64;100441.97;4991772;28;98893;-82
2021/06/20 10:08:31;;;;;;;;;;;;;;;36.51;29.00;100431.94;4983812;28;99328;-85
2021/06/20 10:10:59;;;;;;;;;;;;;;;36.16;28.96;100439.13;4982371;28;96183;-85
2021/06/20 10:13:26;;;;;;;;;;;;;;;36.37;28.92;100435.94;4980374;28;96596;-86
2021/06/20 10:15:52;;;;;;;;;;;;;;;36.51;29.31;100442.13;4977906;28;98294;-86
2021/06/20 10:18:20;;;;;;;;;;;;;;;36.65;29.03;100450.00;4979673;28;98039;-86
2021/06/20 10:20:56;;;;;;;;;;;;;;;36.67;28.96;100445.13;4981902;28;96570;-83
2021/06/20 10:23:36;;;;;;;;;;;;;;;36.65;28.90;100438.16;4982012;28;96212;-86
2021/06/20 10:26:20;;;;;;;;;;;;;;;36.97;28.17;100444.28;4982362;28;99698;-81
2021/06/20 10:28:51;;;;;;;;;;;;;;;36.46;29.23;100437.31;4979632;28;96861;-84
2021/06/20 10:31:17;;;;;;;;;;;;;;;36.10;29.26;100437.31;4982518;28;95835;-86
2021/06/20 10:33:58;;;;;;;;;;;;;;;36.66;28.97;100432.44;4980458;28;96866;-86
2021/06/20 10:36:24;;;;;;;;;;;;;;;36.60;28.92;100438.81;4991389;28;99638;-86
2021/06/20 10:38:52;;;;;;;;;;;;;;;36.76;28.72;100437.38;5000158;28;97107;-86
2021/06/20 10:41:22;;;;;;;;;;;;;;;36.89;28.51;100439.13;4999365;28;96654;-87
2021/06/20 10:43:55;;;;;;;;;;;;;;;36.42;29.28;100443.53;5002116;28;96194;-86
2021/06/20 10:46:24;;;;;;;;;;;;;;;37.00;28.66;100446.56;5002357;28;98548;-86
2021/06/20 10:48:54;;;;;;;;;;;;;;;37.09;28.41;100446.00;5002471;28;96289;-81
2021/06/20 10:51:23;;;;;;;;;;;;;;;36.93;28.41;100432.91;4985032;28;95884;-84
2021/06/20 10:53:51;;;;;;;;;;;;;;;37.04;28.56;100436.75;4985469;28;97623;-86
2021/06/20 10:56:21;;;;;;;;;;;;;;;36.65;29.06;100438.16;5002208;28;99671;-81
2021/06/20 10:58:49;;;;;;;;;;;;;;;36.96;28.49;100439.84;5016157;28;100020;-86
2021/06/20 11:01:16;;;;;;;;;;;;;;;36.55;29.38;100438.69;5017770;28;95936;-86
2021/06/20 11:03:47;;;;;;;;;;;;;;;37.09;28.46;100434.97;5002863;28;97296;-83
2021/06/20 11:06:20;;;;;;;;;;;;;;;36.63;28.69;100441.09;5019740;28;99771;-86
2021/06/20 11:08:55;;;;;;;;;;;;;;;36.92;28.54;100444.13;5016899;28;98090;-86
2021/06/20 11:11:26;;;;;;;;;;;;;;;36.83;27.99;100440.03;5008555;28;96585;-86
2021/06/20 11:14:02;;;;;;;;;;;;;;;37.17;27.39;100430.22;5016893;28;96115;-82
2021/06/20 11:16:32;;;;;;;;;;;;;;;37.37;27.43;100430.75;5017690;28;99146;-85
2021/06/20 11:19:10;;;;;;;;;;;;;;;37.38;27.52;100433.28;5000913;28;100892;-83
2021/06/20 11:21:46;;;;;;;;;;;;;;;37.83;26.89;100430.81;4990683;28;97089;-86
2021/06/20 11:24:18;;;;;;;;;;;;;;;37.56;27.01;100423.22;4997855;28;97202;-85
2021/06/20 11:27:00;;;;;;;;;;;;;;;37.89;26.58;100420.75;5000880;28;98189;-85
2021/06/20 11:29:37;;;;;;;;;;;;;;;37.42;27.15;100428.97;4999730;28;98523;-85
2021/06/20 11:32:04;;;;;;;;;;;;;;;37.94;26.64;100423.63;5011267;28;96663;-84
2021/06/20 11:34:31;;;;;;;;;;;;;;;38.44;25.94;100431.38;5012775;28;96583;-86
2021/06/20 11:37:01;;;;;;;;;;;;;;;38.14;25.84;100417.75;4981973;28;97482;-85
2021/06/20 11:39:51;;;;;;;;;;;;;;;38.46;25.84;100418.16;5002255;28;99299;-85
2021/06/20 11:42:24;;;;;;;;;;;;;;;38.54;26.05;100421.41;5008368;28;96582;-85
2021/06/20 11:44:55;;;;;;;;;;;;;;;37.57;26.01;100413.88;5010894;28;97294;-86
2021/06/20 11:53:02;;;;;;;;;;;;;;;37.54;26.28;100412.47;4994800;28;97050;-86
2021/06/20 11:55:30;;;;;;;;;;;;;;;37.72;26.06;100409.63;4993524;28;97294;-88
2021/06/20 11:57:56;;;;;;;;;;;;;;;37.49;26.10;100421.44;5004523;28;99833;-85
2021/06/20 12:00:31;;;;;;;;;;;;;;;37.86;25.55;100413.81;5006856;28;97719;-84
2021/06/20 12:02:59;;;;;;;;;;;;;;;38.10;25.35;100411.88;4990663;28;96800;-85
2021/06/20 12:05:25;;;;;;;;;;;;;;;36.97;26.38;100402.97;5008715;28;96741;-85
2021/06/20 12:08:03;;;;;;;;;;;;;;;37.37;26.09;100416.97;4996099;28;100510;-85
2021/06/20 12:10:31;;;;;;;;;;;;;;;37.55;26.03;100410.56;4984539;28;98931;-87
2021/06/20 12:12:58;;;;;;;;;;;;;;;37.38;26.07;100415.91;4996566;28;97298;-86
2021/06/20 12:15:24;;;;;;;;;;;;;;;37.33;25.93;100410.28;4994753;28;97738;-84
2021/06/20 12:17:58;;;;;;;;;;;;;;;37.69;25.55;100415.59;4983209;28;97769;-86
2021/06/20 12:20:28;;;;;;;;;;;;;;;37.87;25.28;100415.50;4982073;28;98133;-86
2021/06/20 12:22:55;;;;;;;;;;;;;;;37.43;25.76;100411.34;4983982;28;97408;-85
2021/06/20 12:25:21;;;;;;;;;;;;;;;37.81;25.57;100419.19;4996058;28;96866;-85
2021/06/20 12:27:49;;;;;;;;;;;;;;;38.02;25.14;100405.84;4980465;28;98255;-85
2021/06/20 12:30:17;;;;;;;;;;;;;;;38.28;24.77;100400.69;4987716;28;99195;-84
2021/06/20 12:32:44;;;;;;;;;;;;;;;38.25;24.74;100409.47;5002549;28;96798;-86
2021/06/20 12:35:18;;;;;;;;;;;;;;;38.05;24.88;100411.78;4988212;28;97147;-85
2021/06/20 12:37:45;;;;;;;;;;;;;;;38.46;24.50;100412.66;4998406;28;98368;-85
2021/06/20 12:40:25;;;;;;;;;;;;;;;38.44;24.63;100412.88;5004735;28;98809;-86
2021/06/20 12:42:53;;;;;;;;;;;;;;;38.83;23.67;100408.44;5008588;28;97069;-84
2021/06/20 12:45:27;;;;;;;;;;;;;;;39.28;23.52;100415.91;5007742;28;96726;-84
2021/06/20 12:47:54;;;;;;;;;;;;;;;39.14;24.16;100411.78;5009524;28;97991;-85
2021/06/20 12:50:28;;;;;;;;;;;;;;;39.26;23.08;100418.06;4988822;28;100095;-84
2021/06/20 12:52:54;;;;;;;;;;;;;;;39.18;23.34;100412.97;4997008;28;97359;-81
2021/06/20 12:55:21;;;;;;;;;;;;;;;39.51;22.81;100414.94;4980715;28;96869;-82
2021/06/20 12:57:55;;;;;;;;;;;;;;;39.08;23.15;100421.06;4983840;28;99784;-80
2021/06/20 13:00:22;;;;;;;;;;;;;;;39.23;22.81;100418.56;4988453;28;97735;-80
2021/06/20 13:02:53;;;;;;;;;;;;;;;39.31;22.52;100412.66;4983094;28;96828;-80